Aviation Digital Data Service (ADDS)

Output produced by TAFs form (1152 UTC 27 May 2017)
found at http://www.aviationweather.gov/adds/tafs/
 
METAR text: RJTF 270800Z 01010KT 320V060 9999 FEW020 SCT/// 22/16 Q1006
Conditions at: RJTF (CHOFU AIRPORT , JP) observed 0800 UTC 27 May 2017
Temperature: 22.0°C (72°F)
Dewpoint: 16.0°C (61°F) [RH = 69%]
Pressure (altimeter): 29.70 inches Hg (1006.0 mb)
Winds: from the N (10 degrees) at 12 MPH (10 knots; 5.2 m/s)
Visibility: 6 or more miles (10+ km)
Ceiling: at least 12,000 feet AGL
Clouds: few clouds at 2000 feet AGL
Weather: no significant weather observed at this time